sensor_id;sensor_type;location;lat;lon;timestamp;pressure;altitude;pressure_sealevel;temperature;humidity
56558;BME280;43358;50.356;12.456;2023-03-14T00:00:41;93683;;;7.5;98.8
56558;BME280;43358;50.356;12.456;2023-03-14T00:01:43;93686;;;7.6;98.8
56558;BME280;43358;50.356;12.456;2023-03-14T00:02:45;93693;;;7.6;98.8
56558;BME280;43358;50.356;12.456;2023-03-14T00:03:47;93691;;;7.6;98.8
56558;BME280;43358;50.356;12.456;2023-03-14T00:04:49;93701;;;7.6;98.8
56558;BME280;43358;50.356;12.456;2023-03-14T00:05:51;93698;;;7.6;98.8
56558;BME280;43358;50.356;12.456;2023-03-14T00:06:53;93699;;;7.6;98.8
56558;BME280;43358;50.356;12.456;2023-03-14T00:07:55;93700;;;7.6;98.8
56558;BME280;43358;50.356;12.456;2023-03-14T00:08:57;93696;;;7.5;98.8
56558;BME280;43358;50.356;12.456;2023-03-14T00:09:59;93697;;;7.5;98.8
56558;BME280;43358;50.356;12.456;2023-03-14T00:11:03;93698;;;7.5;98.8
56558;BME280;43358;50.356;12.456;2023-03-14T00:12:03;93702;;;7.4;98.8
56558;BME280;43358;50.356;12.456;2023-03-14T00:13:05;93705;;;7.4;98.8
56558;BME280;43358;50.356;12.456;2023-03-14T00:14:07;93710;;;7.4;98.8
56558;BME280;43358;50.356;12.456;2023-03-14T00:15:13;93711;;;7.4;98.8
56558;BME280;43358;50.356;12.456;2023-03-14T00:16:11;93715;;;7.4;98.8
56558;BME280;43358;50.356;12.456;2023-03-14T00:17:13;93711;;;7.3;98.8
56558;BME280;43358;50.356;12.456;2023-03-14T00:18:15;93714;;;7.3;98.8
56558;BME280;43358;50.356;12.456;2023-03-14T00:19:18;93713;;;7.3;98.8
56558;BME280;43358;50.356;12.456;2023-03-14T00:20:21;93712;;;7.3;98.8
56558;BME280;43358;50.356;12.456;2023-03-14T00:21:23;93712;;;7.3;98.8
56558;BME280;43358;50.356;12.456;2023-03-14T00:22:26;93713;;;7.2;98.8
56558;BME280;43358;50.356;12.456;2023-03-14T00:23:27;93722;;;7.2;98.8
56558;BME280;43358;50.356;12.456;2023-03-14T00:24:29;93717;;;7.2;98.8
56558;BME280;43358;50.356;12.456;2023-03-14T00:25:31;93724;;;7.2;98.8
56558;BME280;43358;50.356;12.456;2023-03-14T00:26:33;93720;;;7.2;98.8
56558;BME280;43358;50.356;12.456;2023-03-14T00:27:35;93722;;;7.2;98.8
56558;BME280;43358;50.356;12.456;2023-03-14T00:28:37;93729;;;7.2;98.8
56558;BME280;43358;50.356;12.456;2023-03-14T00:29:39;93734;;;7.3;98.8
56558;BME280;43358;50.356;12.456;2023-03-14T00:30:41;93739;;;7.4;98.8
56558;BME280;43358;50.356;12.456;2023-03-14T00:31:43;93735;;;7.4;98.8
56558;BME280;43358;50.356;12.456;2023-03-14T00:32:45;93730;;;7.4;98.8
56558;BME280;43358;50.356;12.456;2023-03-14T00:33:47;93732;;;7.4;98.8
56558;BME280;43358;50.356;12.456;2023-03-14T00:34:49;93729;;;7.4;98.8
56558;BME280;43358;50.356;12.456;2023-03-14T00:35:53;93724;;;7.4;98.8
56558;BME280;43358;50.356;12.456;2023-03-14T00:36:53;93717;;;7.4;98.8
56558;BME280;43358;50.356;12.456;2023-03-14T00:37:55;93708;;;7.4;98.8
56558;BME280;43358;50.356;12.456;2023-03-14T00:38:57;93706;;;7.5;98.8
56558;BME280;43358;50.356;12.456;2023-03-14T00:39:59;93701;;;7.5;98.8
56558;BME280;43358;50.356;12.456;2023-03-14T00:41:02;93704;;;7.5;98.8
56558;BME280;43358;50.356;12.456;2023-03-14T00:42:03;93713;;;7.5;98.8
56558;BME280;43358;50.356;12.456;2023-03-14T00:43:05;93712;;;7.6;98.8
56558;BME280;43358;50.356;12.456;2023-03-14T00:44:07;93712;;;7.7;98.8
56558;BME280;43358;50.356;12.456;2023-03-14T00:45:09;93711;;;7.7;98.8
56558;BME280;43358;50.356;12.456;2023-03-14T00:46:11;93710;;;7.8;98.8
56558;BME280;43358;50.356;12.456;2023-03-14T00:47:13;93712;;;7.8;98.8
56558;BME280;43358;50.356;12.456;2023-03-14T00:48:15;93718;;;7.8;98.8
56558;BME280;43358;50.356;12.456;2023-03-14T00:49:18;93720;;;7.7;98.8
56558;BME280;43358;50.356;12.456;2023-03-14T00:50:21;93719;;;7.7;98.8
56558;BME280;43358;50.356;12.456;2023-03-14T00:51:23;93718;;;7.6;98.8
56558;BME280;43358;50.356;12.456;2023-03-14T00:52:25;93720;;;7.6;98.8
56558;BME280;43358;50.356;12.456;2023-03-14T00:53:27;93721;;;7.5;98.8
56558;BME280;43358;50.356;12.456;2023-03-14T00:54:29;93722;;;7.5;98.8
56558;BME280;43358;50.356;12.456;2023-03-14T00:55:31;93720;;;7.5;98.8
56558;BME280;43358;50.356;12.456;2023-03-14T00:56:33;93718;;;7.4;98.8
56558;BME280;43358;50.356;12.456;2023-03-14T00:57:35;93721;;;7.4;98.8
56558;BME280;43358;50.356;12.456;2023-03-14T00:58:37;93723;;;7.4;98.8
56558;BME280;43358;50.356;12.456;2023-03-14T00:59:39;93730;;;7.4;98.8
56558;BME280;43358;50.356;12.456;2023-03-14T01:00:41;93734;;;7.3;98.8
56558;BME280;43358;50.356;12.456;2023-03-14T01:01:43;93727;;;7.3;98.8
56558;BME280;43358;50.356;12.456;2023-03-14T01:02:45;93727;;;7.3;98.8
56558;BME280;43358;50.356;12.456;2023-03-14T01:03:49;93726;;;7.3;98.8
56558;BME280;43358;50.356;12.456;2023-03-14T01:04:49;93728;;;7.3;98.8
56558;BME280;43358;50.356;12.456;2023-03-14T01:06:17;93732;;;7.3;98.8
56558;BME280;43358;50.356;12.456;2023-03-14T01:07:16;93727;;;7.3;98.8
56558;BME280;43358;50.356;12.456;2023-03-14T01:08:16;93723;;;7.3;98.8
56558;BME280;43358;50.356;12.456;2023-03-14T01:09:16;93720;;;7.3;98.8
56558;BME280;43358;50.356;12.456;2023-03-14T01:10:16;93721;;;7.3;98.8
56558;BME280;43358;50.356;12.456;2023-03-14T01:11:17;93716;;;7.3;98.8
56558;BME280;43358;50.356;12.456;2023-03-14T01:12:16;93715;;;7.3;98.8
56558;BME280;43358;50.356;12.456;2023-03-14T01:13:16;93710;;;7.3;98.8
56558;BME280;43358;50.356;12.456;2023-03-14T01:14:16;93710;;;7.3;98.8
56558;BME280;43358;50.356;12.456;2023-03-14T01:15:16;93708;;;7.2;98.8
56558;BME280;43358;50.356;12.456;2023-03-14T01:16:16;93708;;;7.2;98.8
56558;BME280;43358;50.356;12.456;2023-03-14T01:17:16;93715;;;7.1;98.8
56558;BME280;43358;50.356;12.456;2023-03-14T01:18:16;93720;;;7.1;98.8
56558;BME280;43358;50.356;12.456;2023-03-14T01:19:18;93727;;;7.1;98.8
56558;BME280;43358;50.356;12.456;2023-03-14T01:20:21;93727;;;7.1;98.8
56558;BME280;43358;50.356;12.456;2023-03-14T01:21:37;93730;;;7.1;98.8
56558;BME280;43358;50.356;12.456;2023-03-14T01:22:25;93728;;;7.1;98.8
56558;BME280;43358;50.356;12.456;2023-03-14T01:23:27;93731;;;7.1;98.8
56558;BME280;43358;50.356;12.456;2023-03-14T01:24:29;93728;;;7.1;98.8
56558;BME280;43358;50.356;12.456;2023-03-14T01:25:31;93730;;;7.1;98.8
56558;BME280;43358;50.356;12.456;2023-03-14T01:26:34;93726;;;7.1;98.8
56558;BME280;43358;50.356;12.456;2023-03-14T01:27:35;93726;;;7.1;98.8
56558;BME280;43358;50.356;12.456;2023-03-14T01:28:37;93732;;;7.1;98.8
56558;BME280;43358;50.356;12.456;2023-03-14T01:30:41;93726;;;7;98.8
56558;BME280;43358;50.356;12.456;2023-03-14T01:31:43;93722;;;7;98.8
56558;BME280;43358;50.356;12.456;2023-03-14T01:32:45;93723;;;7;98.8
56558;BME280;43358;50.356;12.456;2023-03-14T01:33:47;93723;;;7;98.8
56558;BME280;43358;50.356;12.456;2023-03-14T01:34:49;93720;;;7;98.8
56558;BME280;43358;50.356;12.456;2023-03-14T01:35:51;93716;;;7;98.8
56558;BME280;43358;50.356;12.456;2023-03-14T01:36:53;93714;;;6.9;98.8
56558;BME280;43358;50.356;12.456;2023-03-14T01:37:55;93709;;;6.9;98.8
56558;BME280;43358;50.356;12.456;2023-03-14T01:38:57;93708;;;6.9;98.8
56558;BME280;43358;50.356;12.456;2023-03-14T01:39:59;93705;;;6.9;98.8
56558;BME280;43358;50.356;12.456;2023-03-14T01:41:01;93703;;;6.9;98.8
56558;BME280;43358;50.356;12.456;2023-03-14T01:42:03;93706;;;7;98.8
56558;BME280;43358;50.356;12.456;2023-03-14T01:43:06;93695;;;7;98.8
56558;BME280;43358;50.356;12.456;2023-03-14T01:44:08;93700;;;6.9;98.8
56558;BME280;43358;50.356;12.456;2023-03-14T01:45:53;93699;;;6.9;98.8
56558;BME280;43358;50.356;12.456;2023-03-14T01:46:17;93704;;;6.9;98.8
56558;BME280;43358;50.356;12.456;2023-03-14T01:47:13;93690;;;6.9;98.8
56558;BME280;43358;50.356;12.456;2023-03-14T01:48:15;93693;;;6.9;98.8
56558;BME280;43358;50.356;12.456;2023-03-14T01:49:21;93693;;;6.8;98.8
56558;BME280;43358;50.356;12.456;2023-03-14T01:50:21;93686;;;6.8;98.8
56558;BME280;43358;50.356;12.456;2023-03-14T01:51:25;93693;;;6.8;98.8
56558;BME280;43358;50.356;12.456;2023-03-14T01:52:27;93692;;;6.8;98.8
56558;BME280;43358;50.356;12.456;2023-03-14T01:53:28;93691;;;6.8;98.8
56558;BME280;43358;50.356;12.456;2023-03-14T01:54:31;93692;;;6.8;98.8
56558;BME280;43358;50.356;12.456;2023-03-14T01:55:32;93693;;;6.8;98.8
56558;BME280;43358;50.356;12.456;2023-03-14T01:56:35;93688;;;6.8;98.8
56558;BME280;43358;50.356;12.456;2023-03-14T01:57:37;93689;;;6.8;98.8
56558;BME280;43358;50.356;12.456;2023-03-14T01:58:38;93689;;;6.8;98.8
56558;BME280;43358;50.356;12.456;2023-03-14T01:59:40;93685;;;6.8;98.8
56558;BME280;43358;50.356;12.456;2023-03-14T02:00:42;93685;;;6.8;98.8
56558;BME280;43358;50.356;12.456;2023-03-14T02:01:45;93684;;;6.9;98.8
56558;BME280;43358;50.356;12.456;2023-03-14T02:02:46;93683;;;7;98.8
56558;BME280;43358;50.356;12.456;2023-03-14T02:03:50;93685;;;7;98.8
56558;BME280;43358;50.356;12.456;2023-03-14T02:04:50;93686;;;7;98.8
56558;BME280;43358;50.356;12.456;2023-03-14T02:05:52;93681;;;7;98.8
56558;BME280;43358;50.356;12.456;2023-03-14T02:06:55;93683;;;7;98.8
56558;BME280;43358;50.356;12.456;2023-03-14T02:07:56;93679;;;7;98.8
56558;BME280;43358;50.356;12.456;2023-03-14T02:08:58;93682;;;6.9;98.8
56558;BME280;43358;50.356;12.456;2023-03-14T02:10:01;93677;;;6.9;98.8
56558;BME280;43358;50.356;12.456;2023-03-14T02:11:03;93681;;;6.9;98.8
56558;BME280;43358;50.356;12.456;2023-03-14T02:12:06;93671;;;6.9;98.8
56558;BME280;43358;50.356;12.456;2023-03-14T02:13:11;93668;;;6.9;98.8
56558;BME280;43358;50.356;12.456;2023-03-14T02:14:13;93671;;;6.9;98.8
56558;BME280;43358;50.356;12.456;2023-03-14T02:15:12;93672;;;6.9;98.8
56558;BME280;43358;50.356;12.456;2023-03-14T02:16:14;93667;;;7;98.8
56558;BME280;43358;50.356;12.456;2023-03-14T02:17:17;93664;;;7;98.8
56558;BME280;43358;50.356;12.456;2023-03-14T02:18:22;93658;;;7.1;98.8
56558;BME280;43358;50.356;12.456;2023-03-14T02:19:26;93646;;;7.1;98.8
56558;BME280;43358;50.356;12.456;2023-03-14T02:20:28;93642;;;7.1;98.8
56558;BME280;43358;50.356;12.456;2023-03-14T02:21:31;93644;;;7.2;98.8
56558;BME280;43358;50.356;12.456;2023-03-14T02:22:30;93645;;;7.2;98.8
56558;BME280;43358;50.356;12.456;2023-03-14T02:23:34;93645;;;7.2;98.8
56558;BME280;43358;50.356;12.456;2023-03-14T02:24:35;93640;;;7.2;98.8
56558;BME280;43358;50.356;12.456;2023-03-14T02:25:38;93640;;;7.3;98.8
56558;BME280;43358;50.356;12.456;2023-03-14T02:26:38;93636;;;7.3;98.8
56558;BME280;43358;50.356;12.456;2023-03-14T02:27:40;93635;;;7.4;98.8
56558;BME280;43358;50.356;12.456;2023-03-14T02:28:42;93631;;;7.4;98.8
56558;BME280;43358;50.356;12.456;2023-03-14T02:29:45;93623;;;7.4;98.8
56558;BME280;43358;50.356;12.456;2023-03-14T02:30:46;93617;;;7.4;98.8
56558;BME280;43358;50.356;12.456;2023-03-14T02:31:48;93612;;;7.4;98.8
56558;BME280;43358;50.356;12.456;2023-03-14T02:32:51;93605;;;7.4;98.8
56558;BME280;43358;50.356;12.456;2023-03-14T02:33:52;93602;;;7.3;98.8
56558;BME280;43358;50.356;12.456;2023-03-14T02:34:54;93603;;;7.3;98.8
56558;BME280;43358;50.356;12.456;2023-03-14T02:35:56;93604;;;7.3;98.8
56558;BME280;43358;50.356;12.456;2023-03-14T02:36:58;93593;;;7.3;98.8
56558;BME280;43358;50.356;12.456;2023-03-14T02:38:00;93585;;;7.3;98.8
56558;BME280;43358;50.356;12.456;2023-03-14T02:39:05;93587;;;7.4;98.8
56558;BME280;43358;50.356;12.456;2023-03-14T02:40:04;93584;;;7.4;98.8
56558;BME280;43358;50.356;12.456;2023-03-14T02:41:06;93582;;;7.4;98.8
56558;BME280;43358;50.356;12.456;2023-03-14T02:42:08;93572;;;7.4;98.8
56558;BME280;43358;50.356;12.456;2023-03-14T02:43:10;93579;;;7.4;98.8
56558;BME280;43358;50.356;12.456;2023-03-14T02:44:12;93582;;;7.4;98.8
56558;BME280;43358;50.356;12.456;2023-03-14T02:45:33;93589;;;7.3;98.8
56558;BME280;43358;50.356;12.456;2023-03-14T02:46:16;93589;;;7.3;98.8
56558;BME280;43358;50.356;12.456;2023-03-14T02:47:18;93586;;;7.3;98.8
56558;BME280;43358;50.356;12.456;2023-03-14T02:48:24;93592;;;7.4;98.8
56558;BME280;43358;50.356;12.456;2023-03-14T02:49:24;93589;;;7.4;98.8
56558;BME280;43358;50.356;12.456;2023-03-14T02:50:26;93597;;;7.3;98.8
56558;BME280;43358;50.356;12.456;2023-03-14T02:51:28;93599;;;7.4;98.8
56558;BME280;43358;50.356;12.456;2023-03-14T02:52:30;93598;;;7.4;98.8
56558;BME280;43358;50.356;12.456;2023-03-14T02:53:33;93601;;;7.3;98.8
56558;BME280;43358;50.356;12.456;2023-03-14T02:54:34;93604;;;7.3;98.8
56558;BME280;43358;50.356;12.456;2023-03-14T02:55:36;93604;;;7.3;98.8
56558;BME280;43358;50.356;12.456;2023-03-14T02:56:38;93604;;;7.3;98.8
56558;BME280;43358;50.356;12.456;2023-03-14T02:57:40;93607;;;7.3;98.8
56558;BME280;43358;50.356;12.456;2023-03-14T02:58:42;93598;;;7.4;98.8
56558;BME280;43358;50.356;12.456;2023-03-14T02:59:44;93604;;;7.3;98.8
56558;BME280;43358;50.356;12.456;2023-03-14T03:00:46;93600;;;7.3;98.8
56558;BME280;43358;50.356;12.456;2023-03-14T03:01:48;93597;;;7.4;98.8
56558;BME280;43358;50.356;12.456;2023-03-14T03:02:50;93597;;;7.4;98.8
56558;BME280;43358;50.356;12.456;2023-03-14T03:03:52;93590;;;7.4;98.8
56558;BME280;43358;50.356;12.456;2023-03-14T03:04:54;93589;;;7.4;98.8
56558;BME280;43358;50.356;12.456;2023-03-14T03:05:56;93589;;;7.4;98.8
56558;BME280;43358;50.356;12.456;2023-03-14T03:06:58;93587;;;7.4;98.8
56558;BME280;43358;50.356;12.456;2023-03-14T03:08:00;93588;;;7.4;98.8
56558;BME280;43358;50.356;12.456;2023-03-14T03:09:02;93584;;;7.4;98.8
56558;BME280;43358;50.356;12.456;2023-03-14T03:10:04;93588;;;7.3;98.8
56558;BME280;43358;50.356;12.456;2023-03-14T03:11:06;93582;;;7.3;98.8
56558;BME280;43358;50.356;12.456;2023-03-14T03:12:08;93584;;;7.3;98.8
56558;BME280;43358;50.356;12.456;2023-03-14T03:13:10;93588;;;7.3;98.8
56558;BME280;43358;50.356;12.456;2023-03-14T03:14:12;93575;;;7.3;98.8
56558;BME280;43358;50.356;12.456;2023-03-14T03:15:14;93576;;;7.3;98.8
56558;BME280;43358;50.356;12.456;2023-03-14T03:16:16;93575;;;7.3;98.8
56558;BME280;43358;50.356;12.456;2023-03-14T03:17:18;93573;;;7.3;98.8
56558;BME280;43358;50.356;12.456;2023-03-14T03:18:22;93559;;;7.3;98.8
56558;BME280;43358;50.356;12.456;2023-03-14T03:19:24;93560;;;7.4;98.8
56558;BME280;43358;50.356;12.456;2023-03-14T03:20:26;93565;;;7.4;98.8
56558;BME280;43358;50.356;12.456;2023-03-14T03:21:28;93560;;;7.4;98.8
56558;BME280;43358;50.356;12.456;2023-03-14T03:22:30;93566;;;7.4;98.8
56558;BME280;43358;50.356;12.456;2023-03-14T03:23:33;93566;;;7.4;98.8
56558;BME280;43358;50.356;12.456;2023-03-14T03:24:35;93557;;;7.4;98.8
56558;BME280;43358;50.356;12.456;2023-03-14T03:25:37;93560;;;7.4;98.8
56558;BME280;43358;50.356;12.456;2023-03-14T03:26:39;93553;;;7.3;98.8
56558;BME280;43358;50.356;12.456;2023-03-14T03:27:41;93552;;;7.4;98.8
56558;BME280;43358;50.356;12.456;2023-03-14T03:28:43;93554;;;7.3;98.8
56558;BME280;43358;50.356;12.456;2023-03-14T03:29:45;93546;;;7.4;98.8
56558;BME280;43358;50.356;12.456;2023-03-14T03:30:47;93546;;;7.3;98.8
56558;BME280;43358;50.356;12.456;2023-03-14T03:31:49;93542;;;7.4;98.8
56558;BME280;43358;50.356;12.456;2023-03-14T03:32:51;93541;;;7.4;98.8
56558;BME280;43358;50.356;12.456;2023-03-14T03:33:53;93536;;;7.4;98.8
56558;BME280;43358;50.356;12.456;2023-03-14T03:34:55;93542;;;7.4;98.8
56558;BME280;43358;50.356;12.456;2023-03-14T03:35:57;93539;;;7.4;98.8
56558;BME280;43358;50.356;12.456;2023-03-14T03:36:59;93535;;;7.4;98.8
56558;BME280;43358;50.356;12.456;2023-03-14T03:38:01;93532;;;7.4;98.8
56558;BME280;43358;50.356;12.456;2023-03-14T03:39:03;93534;;;7.4;98.8
56558;BME280;43358;50.356;12.456;2023-03-14T03:40:05;93532;;;7.4;98.8
56558;BME280;43358;50.356;12.456;2023-03-14T03:41:07;93532;;;7.4;98.8
56558;BME280;43358;50.356;12.456;2023-03-14T03:42:09;93534;;;7.3;98.8
56558;BME280;43358;50.356;12.456;2023-03-14T03:43:11;93538;;;7.4;98.8
56558;BME280;43358;50.356;12.456;2023-03-14T03:44:13;93538;;;7.4;98.8
56558;BME280;43358;50.356;12.456;2023-03-14T03:45:15;93539;;;7.3;98.8
56558;BME280;43358;50.356;12.456;2023-03-14T03:46:18;93537;;;7.3;98.8
56558;BME280;43358;50.356;12.456;2023-03-14T03:47:21;93536;;;7.3;98.8
56558;BME280;43358;50.356;12.456;2023-03-14T03:48:23;93531;;;7.3;98.8
56558;BME280;43358;50.356;12.456;2023-03-14T03:49:28;93533;;;7.3;98.8
56558;BME280;43358;50.356;12.456;2023-03-14T03:50:28;93529;;;7.3;98.8
56558;BME280;43358;50.356;12.456;2023-03-14T03:51:30;93532;;;7.3;98.8
56558;BME280;43358;50.356;12.456;2023-03-14T03:52:32;93528;;;7.3;98.8
56558;BME280;43358;50.356;12.456;2023-03-14T03:53:34;93527;;;7.3;98.8
56558;BME280;43358;50.356;12.456;2023-03-14T03:54:36;93528;;;7.3;98.8
56558;BME280;43358;50.356;12.456;2023-03-14T03:55:40;93524;;;7.3;98.8
56558;BME280;43358;50.356;12.456;2023-03-14T03:56:40;93526;;;7.2;98.8
56558;BME280;43358;50.356;12.456;2023-03-14T03:57:42;93526;;;7.2;98.8
56558;BME280;43358;50.356;12.456;2023-03-14T03:58:44;93526;;;7.2;98.8
56558;BME280;43358;50.356;12.456;2023-03-14T03:59:46;93525;;;7.2;98.8
56558;BME280;43358;50.356;12.456;2023-03-14T04:00:48;93526;;;7.2;98.8
56558;BME280;43358;50.356;12.456;2023-03-14T04:01:50;93526;;;7.2;98.8
56558;BME280;43358;50.356;12.456;2023-03-14T04:02:53;93524;;;7.2;98.8
56558;BME280;43358;50.356;12.456;2023-03-14T04:03:55;93530;;;7.2;98.8
56558;BME280;43358;50.356;12.456;2023-03-14T04:05:13;93532;;;7.2;98.8
56558;BME280;43358;50.356;12.456;2023-03-14T04:06:00;93535;;;7.2;98.8
56558;BME280;43358;50.356;12.456;2023-03-14T04:07:02;93535;;;7.2;98.8
56558;BME280;43358;50.356;12.456;2023-03-14T04:08:04;93542;;;7.2;98.8
56558;BME280;43358;50.356;12.456;2023-03-14T04:09:06;93544;;;7.2;98.8
56558;BME280;43358;50.356;12.456;2023-03-14T04:11:10;93543;;;7.1;98.8
56558;BME280;43358;50.356;12.456;2023-03-14T04:12:12;93543;;;7.1;98.8
56558;BME280;43358;50.356;12.456;2023-03-14T04:13:15;93546;;;7.1;98.8
56558;BME280;43358;50.356;12.456;2023-03-14T04:14:17;93536;;;7.2;98.8
56558;BME280;43358;50.356;12.456;2023-03-14T04:15:20;93541;;;7.2;98.8
56558;BME280;43358;50.356;12.456;2023-03-14T04:16:23;93544;;;7.1;98.8
56558;BME280;43358;50.356;12.456;2023-03-14T04:17:24;93542;;;7.1;98.8
56558;BME280;43358;50.356;12.456;2023-03-14T04:18:26;93535;;;7.2;98.8
56558;BME280;43358;50.356;12.456;2023-03-14T04:19:28;93538;;;7.2;98.8
56558;BME280;43358;50.356;12.456;2023-03-14T04:20:33;93534;;;7.1;98.8
56558;BME280;43358;50.356;12.456;2023-03-14T04:21:33;93530;;;7.1;98.8
56558;BME280;43358;50.356;12.456;2023-03-14T04:22:35;93532;;;7.1;98.8
56558;BME280;43358;50.356;12.456;2023-03-14T04:23:37;93530;;;7.1;98.8
56558;BME280;43358;50.356;12.456;2023-03-14T04:24:40;93533;;;7.1;98.8
56558;BME280;43358;50.356;12.456;2023-03-14T04:25:42;93519;;;7.2;98.8
56558;BME280;43358;50.356;12.456;2023-03-14T04:26:44;93523;;;7.2;98.8
56558;BME280;43358;50.356;12.456;2023-03-14T04:27:46;93521;;;7.2;98.8
56558;BME280;43358;50.356;12.456;2023-03-14T04:28:48;93512;;;7.2;98.8
56558;BME280;43358;50.356;12.456;2023-03-14T04:29:50;93514;;;7.2;98.8
56558;BME280;43358;50.356;12.456;2023-03-14T04:30:52;93518;;;7.2;98.8
56558;BME280;43358;50.356;12.456;2023-03-14T04:31:54;93509;;;7.2;98.8
56558;BME280;43358;50.356;12.456;2023-03-14T04:32:56;93511;;;7.2;98.8
56558;BME280;43358;50.356;12.456;2023-03-14T04:35:00;93511;;;7.2;98.8
56558;BME280;43358;50.356;12.456;2023-03-14T04:36:03;93507;;;7.2;98.8
56558;BME280;43358;50.356;12.456;2023-03-14T04:37:06;93510;;;7.2;98.8
56558;BME280;43358;50.356;12.456;2023-03-14T04:38:08;93510;;;7.2;98.8
56558;BME280;43358;50.356;12.456;2023-03-14T04:39:10;93510;;;7.2;98.8
56558;BME280;43358;50.356;12.456;2023-03-14T04:40:12;93511;;;7.2;98.8
56558;BME280;43358;50.356;12.456;2023-03-14T04:41:14;93505;;;7.3;98.8
56558;BME280;43358;50.356;12.456;2023-03-14T04:42:16;93510;;;7.3;98.8
56558;BME280;43358;50.356;12.456;2023-03-14T04:43:18;93509;;;7.3;98.8
56558;BME280;43358;50.356;12.456;2023-03-14T04:44:20;93500;;;7.3;98.8
56558;BME280;43358;50.356;12.456;2023-03-14T04:45:22;93496;;;7.3;98.8
56558;BME280;43358;50.356;12.456;2023-03-14T04:46:24;93495;;;7.3;98.8
56558;BME280;43358;50.356;12.456;2023-03-14T04:47:26;93498;;;7.3;98.8
56558;BME280;43358;50.356;12.456;2023-03-14T04:48:28;93497;;;7.3;98.8
56558;BME280;43358;50.356;12.456;2023-03-14T04:50:16;93495;;;7.3;98.8
56558;BME280;43358;50.356;12.456;2023-03-14T04:51:16;93488;;;7.3;98.8
56558;BME280;43358;50.356;12.456;2023-03-14T04:52:16;93489;;;7.3;98.8
56558;BME280;43358;50.356;12.456;2023-03-14T04:53:17;93487;;;7.3;98.8
56558;BME280;43358;50.356;12.456;2023-03-14T04:54:16;93482;;;7.3;98.8
56558;BME280;43358;50.356;12.456;2023-03-14T04:55:16;93478;;;7.3;98.8
56558;BME280;43358;50.356;12.456;2023-03-14T04:56:16;93477;;;7.3;98.8
56558;BME280;43358;50.356;12.456;2023-03-14T04:57:16;93471;;;7.3;98.8
56558;BME280;43358;50.356;12.456;2023-03-14T04:58:17;93467;;;7.3;98.8
56558;BME280;43358;50.356;12.456;2023-03-14T04:59:16;93460;;;7.3;98.8
56558;BME280;43358;50.356;12.456;2023-03-14T05:00:17;93454;;;7.3;98.8
56558;BME280;43358;50.356;12.456;2023-03-14T05:01:16;93455;;;7.3;98.8
56558;BME280;43358;50.356;12.456;2023-03-14T05:02:16;93454;;;7.3;98.8
56558;BME280;43358;50.356;12.456;2023-03-14T05:03:17;93455;;;7.3;98.8
56558;BME280;43358;50.356;12.456;2023-03-14T05:04:16;93451;;;7.3;98.8
56558;BME280;43358;50.356;12.456;2023-03-14T05:05:16;93446;;;7.3;98.8
56558;BME280;43358;50.356;12.456;2023-03-14T05:06:16;93448;;;7.3;98.8
56558;BME280;43358;50.356;12.456;2023-03-14T05:07:16;93447;;;7.3;98.8
56558;BME280;43358;50.356;12.456;2023-03-14T05:08:16;93443;;;7.2;98.8
56558;BME280;43358;50.356;12.456;2023-03-14T05:09:17;93440;;;7.2;98.8
56558;BME280;43358;50.356;12.456;2023-03-14T05:10:16;93436;;;7.2;98.8
56558;BME280;43358;50.356;12.456;2023-03-14T05:11:16;93437;;;7.2;98.8
56558;BME280;43358;50.356;12.456;2023-03-14T05:13:16;93439;;;7.2;98.8
56558;BME280;43358;50.356;12.456;2023-03-14T05:14:16;93436;;;7.2;98.8
56558;BME280;43358;50.356;12.456;2023-03-14T05:15:16;93433;;;7.2;98.8
56558;BME280;43358;50.356;12.456;2023-03-14T05:16:16;93438;;;7.2;98.8
56558;BME280;43358;50.356;12.456;2023-03-14T05:17:16;93435;;;7.2;98.8
56558;BME280;43358;50.356;12.456;2023-03-14T05:18:17;93441;;;7.1;98.8
56558;BME280;43358;50.356;12.456;2023-03-14T05:19:16;93435;;;7.1;98.8
56558;BME280;43358;50.356;12.456;2023-03-14T05:20:16;93437;;;7.2;98.8
56558;BME280;43358;50.356;12.456;2023-03-14T05:21:36;93430;;;7.1;98.8
56558;BME280;43358;50.356;12.456;2023-03-14T05:22:39;93434;;;7.1;98.8
56558;BME280;43358;50.356;12.456;2023-03-14T05:23:41;93433;;;7.2;98.8
56558;BME280;43358;50.356;12.456;2023-03-14T05:24:43;93433;;;7.2;98.8
56558;BME280;43358;50.356;12.456;2023-03-14T05:25:45;93437;;;7.2;98.8
56558;BME280;43358;50.356;12.456;2023-03-14T05:26:47;93441;;;7.2;98.8
56558;BME280;43358;50.356;12.456;2023-03-14T05:27:49;93446;;;7.1;98.8
56558;BME280;43358;50.356;12.456;2023-03-14T05:28:51;93446;;;7.2;98.8
56558;BME280;43358;50.356;12.456;2023-03-14T05:29:53;93446;;;7.2;98.8
56558;BME280;43358;50.356;12.456;2023-03-14T05:30:55;93441;;;7.2;98.8
56558;BME280;43358;50.356;12.456;2023-03-14T05:31:57;93442;;;7.2;98.8
56558;BME280;43358;50.356;12.456;2023-03-14T05:32:59;93442;;;7.2;98.8
56558;BME280;43358;50.356;12.456;2023-03-14T05:34:01;93446;;;7.2;98.8
56558;BME280;43358;50.356;12.456;2023-03-14T05:35:03;93450;;;7.2;98.8
56558;BME280;43358;50.356;12.456;2023-03-14T05:36:05;93455;;;7.2;98.8
56558;BME280;43358;50.356;12.456;2023-03-14T05:37:07;93451;;;7.2;98.8
56558;BME280;43358;50.356;12.456;2023-03-14T05:38:09;93450;;;7.2;98.8
56558;BME280;43358;50.356;12.456;2023-03-14T05:39:11;93449;;;7.2;98.8
56558;BME280;43358;50.356;12.456;2023-03-14T05:40:13;93443;;;7.2;98.8
56558;BME280;43358;50.356;12.456;2023-03-14T05:41:15;93443;;;7.2;98.8
56558;BME280;43358;50.356;12.456;2023-03-14T05:42:17;93437;;;7.2;98.8
56558;BME280;43358;50.356;12.456;2023-03-14T05:43:19;93442;;;7.2;98.8
56558;BME280;43358;50.356;12.456;2023-03-14T05:44:21;93437;;;7.2;98.8
56558;BME280;43358;50.356;12.456;2023-03-14T05:45:23;93449;;;7.2;98.8
56558;BME280;43358;50.356;12.456;2023-03-14T05:46:25;93444;;;7.2;98.8
56558;BME280;43358;50.356;12.456;2023-03-14T05:47:28;93451;;;7.2;98.8
56558;BME280;43358;50.356;12.456;2023-03-14T05:48:31;93455;;;7.2;98.8
56558;BME280;43358;50.356;12.456;2023-03-14T05:49:33;93457;;;7.2;98.8
56558;BME280;43358;50.356;12.456;2023-03-14T05:50:35;93459;;;7.2;98.8
56558;BME280;43358;50.356;12.456;2023-03-14T05:51:37;93459;;;7.2;98.8
56558;BME280;43358;50.356;12.456;2023-03-14T05:52:39;93459;;;7.2;98.8
56558;BME280;43358;50.356;12.456;2023-03-14T05:53:41;93461;;;7.3;98.8
56558;BME280;43358;50.356;12.456;2023-03-14T05:54:43;93454;;;7.3;98.8
56558;BME280;43358;50.356;12.456;2023-03-14T05:55:45;93457;;;7.3;98.8
56558;BME280;43358;50.356;12.456;2023-03-14T05:56:47;93453;;;7.3;98.8